sensor_id;sensor_type;location;lat;lon;timestamp;temperature;humidity
34873;DHT22;21084;51.098;14.506;2023-04-28T00:00:11;2.60;70.00
34873;DHT22;21084;51.098;14.506;2023-04-28T00:02:40;2.60;69.50
34873;DHT22;21084;51.098;14.506;2023-04-28T00:05:09;2.60;69.40
34873;DHT22;21084;51.098;14.506;2023-04-28T00:07:38;2.60;69.70
34873;DHT22;21084;51.098;14.506;2023-04-28T00:10:09;2.60;69.70
34873;DHT22;21084;51.098;14.506;2023-04-28T00:12:38;2.70;69.70
34873;DHT22;21084;51.098;14.506;2023-04-28T00:15:07;2.70;70.30
34873;DHT22;21084;51.098;14.506;2023-04-28T00:17:36;2.70;69.70
34873;DHT22;21084;51.098;14.506;2023-04-28T00:20:05;2.70;69.40
34873;DHT22;21084;51.098;14.506;2023-04-28T00:22:34;2.70;69.30
34873;DHT22;21084;51.098;14.506;2023-04-28T00:25:03;2.70;69.20
34873;DHT22;21084;51.098;14.506;2023-04-28T00:27:33;2.60;69.00
34873;DHT22;21084;51.098;14.506;2023-04-28T00:30:02;2.60;69.00
34873;DHT22;21084;51.098;14.506;2023-04-28T00:32:31;2.50;69.00
34873;DHT22;21084;51.098;14.506;2023-04-28T00:35:00;2.50;69.10
34873;DHT22;21084;51.098;14.506;2023-04-28T00:37:28;2.40;68.80
34873;DHT22;21084;51.098;14.506;2023-04-28T00:39:56;2.40;68.90
34873;DHT22;21084;51.098;14.506;2023-04-28T00:42:25;2.30;69.20
34873;DHT22;21084;51.098;14.506;2023-04-28T00:44:55;2.30;69.00
34873;DHT22;21084;51.098;14.506;2023-04-28T00:47:23;2.20;69.00
34873;DHT22;21084;51.098;14.506;2023-04-28T00:49:52;2.20;69.10
34873;DHT22;21084;51.098;14.506;2023-04-28T00:52:21;2.10;69.10
34873;DHT22;21084;51.098;14.506;2023-04-28T00:54:49;2.00;69.20
34873;DHT22;21084;51.098;14.506;2023-04-28T00:57:18;2.00;69.40
34873;DHT22;21084;51.098;14.506;2023-04-28T00:59:47;1.90;70.20
34873;DHT22;21084;51.098;14.506;2023-04-28T01:02:17;1.90;69.80
34873;DHT22;21084;51.098;14.506;2023-04-28T01:04:46;1.90;69.70
34873;DHT22;21084;51.098;14.506;2023-04-28T01:07:15;1.90;69.50
34873;DHT22;21084;51.098;14.506;2023-04-28T01:09:43;1.90;70.00
34873;DHT22;21084;51.098;14.506;2023-04-28T01:12:14;1.80;69.50
34873;DHT22;21084;51.098;14.506;2023-04-28T01:14:42;1.80;69.90
34873;DHT22;21084;51.098;14.506;2023-04-28T01:17:11;1.80;69.80
34873;DHT22;21084;51.098;14.506;2023-04-28T01:19:41;1.80;69.90
34873;DHT22;21084;51.098;14.506;2023-04-28T01:22:10;1.80;70.10
34873;DHT22;21084;51.098;14.506;2023-04-28T01:24:42;1.80;70.40
34873;DHT22;21084;51.098;14.506;2023-04-28T01:27:11;1.90;70.30
34873;DHT22;21084;51.098;14.506;2023-04-28T01:29:40;1.90;70.30
34873;DHT22;21084;51.098;14.506;2023-04-28T01:32:08;1.90;70.40
34873;DHT22;21084;51.098;14.506;2023-04-28T01:34:37;1.90;70.40
34873;DHT22;21084;51.098;14.506;2023-04-28T01:37:06;1.90;70.50
34873;DHT22;21084;51.098;14.506;2023-04-28T01:39:34;1.90;70.60
34873;DHT22;21084;51.098;14.506;2023-04-28T01:42:04;1.90;70.60
34873;DHT22;21084;51.098;14.506;2023-04-28T01:44:33;1.90;70.60
34873;DHT22;21084;51.098;14.506;2023-04-28T01:47:01;1.90;70.30
34873;DHT22;21084;51.098;14.506;2023-04-28T01:49:30;1.90;70.30
34873;DHT22;21084;51.098;14.506;2023-04-28T01:51:58;1.90;70.20
34873;DHT22;21084;51.098;14.506;2023-04-28T01:54:27;1.90;70.20
34873;DHT22;21084;51.098;14.506;2023-04-28T01:56:55;1.90;71.00
34873;DHT22;21084;51.098;14.506;2023-04-28T01:59:25;1.90;70.30
34873;DHT22;21084;51.098;14.506;2023-04-28T02:01:54;2.00;70.40
34873;DHT22;21084;51.098;14.506;2023-04-28T02:04:23;1.90;70.00
34873;DHT22;21084;51.098;14.506;2023-04-28T02:06:52;1.90;70.00
34873;DHT22;21084;51.098;14.506;2023-04-28T02:09:20;1.90;70.00
34873;DHT22;21084;51.098;14.506;2023-04-28T02:11:49;1.90;70.10
34873;DHT22;21084;51.098;14.506;2023-04-28T02:14:17;1.80;69.70
34873;DHT22;21084;51.098;14.506;2023-04-28T02:16:47;1.80;70.10
34873;DHT22;21084;51.098;14.506;2023-04-28T02:19:16;1.80;69.90
34873;DHT22;21084;51.098;14.506;2023-04-28T02:21:45;1.80;70.20
34873;DHT22;21084;51.098;14.506;2023-04-28T02:24:13;1.70;70.10
34873;DHT22;21084;51.098;14.506;2023-04-28T02:26:42;1.70;70.10
34873;DHT22;21084;51.098;14.506;2023-04-28T02:29:11;1.70;70.50
34873;DHT22;21084;51.098;14.506;2023-04-28T02:31:39;1.70;70.60
34873;DHT22;21084;51.098;14.506;2023-04-28T02:34:09;1.70;70.50
34873;DHT22;21084;51.098;14.506;2023-04-28T02:36:38;1.70;70.80
34873;DHT22;21084;51.098;14.506;2023-04-28T02:39:07;1.80;70.90
34873;DHT22;21084;51.098;14.506;2023-04-28T02:41:36;1.80;71.00
34873;DHT22;21084;51.098;14.506;2023-04-28T02:44:05;1.80;71.20
34873;DHT22;21084;51.098;14.506;2023-04-28T02:46:33;1.80;71.40
34873;DHT22;21084;51.098;14.506;2023-04-28T02:49:02;1.80;71.40
34873;DHT22;21084;51.098;14.506;2023-04-28T02:51:32;1.80;71.30
34873;DHT22;21084;51.098;14.506;2023-04-28T02:54:01;1.90;71.20
34873;DHT22;21084;51.098;14.506;2023-04-28T02:56:30;1.90;71.30
34873;DHT22;21084;51.098;14.506;2023-04-28T02:58:59;1.90;71.20
34873;DHT22;21084;51.098;14.506;2023-04-28T03:01:27;1.90;72.10
34873;DHT22;21084;51.098;14.506;2023-04-28T03:03:56;2.00;71.50
34873;DHT22;21084;51.098;14.506;2023-04-28T03:06:25;2.00;71.30
34873;DHT22;21084;51.098;14.506;2023-04-28T03:08:56;2.00;72.10
34873;DHT22;21084;51.098;14.506;2023-04-28T03:11:24;2.10;71.70
34873;DHT22;21084;51.098;14.506;2023-04-28T03:13:53;2.20;71.80
34873;DHT22;21084;51.098;14.506;2023-04-28T03:16:22;2.20;71.60
34873;DHT22;21084;51.098;14.506;2023-04-28T03:18:50;2.20;71.50
34873;DHT22;21084;51.098;14.506;2023-04-28T03:21:19;2.30;71.50
34873;DHT22;21084;51.098;14.506;2023-04-28T03:23:47;2.40;71.50
34873;DHT22;21084;51.098;14.506;2023-04-28T03:26:17;2.40;71.30
34873;DHT22;21084;51.098;14.506;2023-04-28T03:28:46;2.40;71.80
34873;DHT22;21084;51.098;14.506;2023-04-28T03:31:15;2.40;71.20
34873;DHT22;21084;51.098;14.506;2023-04-28T03:33:43;2.50;71.10
34873;DHT22;21084;51.098;14.506;2023-04-28T03:36:13;2.40;70.90
34873;DHT22;21084;51.098;14.506;2023-04-28T03:38:42;2.40;70.70
34873;DHT22;21084;51.098;14.506;2023-04-28T03:41:10;2.40;70.60
34873;DHT22;21084;51.098;14.506;2023-04-28T03:43:40;2.50;70.40
34873;DHT22;21084;51.098;14.506;2023-04-28T03:46:09;2.50;70.50
34873;DHT22;21084;51.098;14.506;2023-04-28T03:48:38;2.40;70.50
34873;DHT22;21084;51.098;14.506;2023-04-28T03:51:07;2.50;70.30
34873;DHT22;21084;51.098;14.506;2023-04-28T03:53:35;2.50;70.20
34873;DHT22;21084;51.098;14.506;2023-04-28T03:56:05;2.50;70.00
34873;DHT22;21084;51.098;14.506;2023-04-28T03:58:33;2.40;69.90
34873;DHT22;21084;51.098;14.506;2023-04-28T04:01:04;2.40;69.70
34873;DHT22;21084;51.098;14.506;2023-04-28T04:03:33;2.40;70.10
34873;DHT22;21084;51.098;14.506;2023-04-28T04:06:02;2.40;70.00
34873;DHT22;21084;51.098;14.506;2023-04-28T04:08:31;2.40;69.80
34873;DHT22;21084;51.098;14.506;2023-04-28T04:11:00;2.50;70.10
34873;DHT22;21084;51.098;14.506;2023-04-28T04:13:28;2.50;70.00
34873;DHT22;21084;51.098;14.506;2023-04-28T04:15:57;2.60;70.00
34873;DHT22;21084;51.098;14.506;2023-04-28T04:18:26;2.70;70.70
34873;DHT22;21084;51.098;14.506;2023-04-28T04:20:55;2.90;69.60
34873;DHT22;21084;51.098;14.506;2023-04-28T04:23:24;3.00;68.40
34873;DHT22;21084;51.098;14.506;2023-04-28T04:25:52;3.20;68.50
34873;DHT22;21084;51.098;14.506;2023-04-28T04:28:20;3.30;68.30
34873;DHT22;21084;51.098;14.506;2023-04-28T04:30:49;3.50;67.80
34873;DHT22;21084;51.098;14.506;2023-04-28T04:33:18;3.60;67.90
34873;DHT22;21084;51.098;14.506;2023-04-28T04:35:47;3.80;66.60
34873;DHT22;21084;51.098;14.506;2023-04-28T04:38:16;4.00;66.10
34873;DHT22;21084;51.098;14.506;2023-04-28T04:40:45;4.20;65.70
34873;DHT22;21084;51.098;14.506;2023-04-28T04:43:13;4.40;65.90
34873;DHT22;21084;51.098;14.506;2023-04-28T04:45:42;4.60;65.50
34873;DHT22;21084;51.098;14.506;2023-04-28T04:48:10;4.80;65.70
34873;DHT22;21084;51.098;14.506;2023-04-28T04:50:39;5.00;63.20
34873;DHT22;21084;51.098;14.506;2023-04-28T04:53:09;5.20;63.20
34873;DHT22;21084;51.098;14.506;2023-04-28T04:55:42;5.30;62.90
34873;DHT22;21084;51.098;14.506;2023-04-28T04:58:11;5.50;61.50
34873;DHT22;21084;51.098;14.506;2023-04-28T05:00:39;5.70;61.10
34873;DHT22;21084;51.098;14.506;2023-04-28T05:03:08;5.80;60.00
34873;DHT22;21084;51.098;14.506;2023-04-28T05:05:36;6.00;58.80
34873;DHT22;21084;51.098;14.506;2023-04-28T05:08:05;6.20;58.20
34873;DHT22;21084;51.098;14.506;2023-04-28T05:10:35;6.40;57.70
34873;DHT22;21084;51.098;14.506;2023-04-28T05:13:03;6.60;57.10
34873;DHT22;21084;51.098;14.506;2023-04-28T05:15:32;6.80;56.90
34873;DHT22;21084;51.098;14.506;2023-04-28T05:18:00;7.10;56.20
34873;DHT22;21084;51.098;14.506;2023-04-28T05:20:35;7.30;55.30
34873;DHT22;21084;51.098;14.506;2023-04-28T05:23:03;7.50;55.10
34873;DHT22;21084;51.098;14.506;2023-04-28T05:25:33;7.70;54.20
34873;DHT22;21084;51.098;14.506;2023-04-28T05:28:02;7.90;53.60
34873;DHT22;21084;51.098;14.506;2023-04-28T05:30:33;8.10;53.00
34873;DHT22;21084;51.098;14.506;2023-04-28T05:33:02;8.30;53.40
34873;DHT22;21084;51.098;14.506;2023-04-28T05:35:31;8.40;53.70
34873;DHT22;21084;51.098;14.506;2023-04-28T05:38:00;8.60;52.50
34873;DHT22;21084;51.098;14.506;2023-04-28T05:40:29;8.80;51.80
34873;DHT22;21084;51.098;14.506;2023-04-28T05:42:57;8.80;51.10
34873;DHT22;21084;51.098;14.506;2023-04-28T05:45:27;8.90;50.80
34873;DHT22;21084;51.098;14.506;2023-04-28T05:47:56;9.20;50.80
34873;DHT22;21084;51.098;14.506;2023-04-28T05:50:25;9.50;50.60
34873;DHT22;21084;51.098;14.506;2023-04-28T05:52:54;9.80;50.10
34873;DHT22;21084;51.098;14.506;2023-04-28T05:55:22;10.20;48.70
34873;DHT22;21084;51.098;14.506;2023-04-28T05:57:52;10.40;47.80
34873;DHT22;21084;51.098;14.506;2023-04-28T06:00:21;10.70;46.80
34873;DHT22;21084;51.098;14.506;2023-04-28T06:02:51;11.00;46.70
34873;DHT22;21084;51.098;14.506;2023-04-28T06:05:19;11.20;45.30
34873;DHT22;21084;51.098;14.506;2023-04-28T06:07:49;11.60;45.50
34873;DHT22;21084;51.098;14.506;2023-04-28T06:10:21;11.80;44.80
34873;DHT22;21084;51.098;14.506;2023-04-28T06:12:50;11.90;44.20
34873;DHT22;21084;51.098;14.506;2023-04-28T06:15:18;12.20;44.70
34873;DHT22;21084;51.098;14.506;2023-04-28T06:17:47;12.30;43.50
34873;DHT22;21084;51.098;14.506;2023-04-28T06:20:17;12.30;42.60
34873;DHT22;21084;51.098;14.506;2023-04-28T06:22:47;12.30;43.00
34873;DHT22;21084;51.098;14.506;2023-04-28T06:25:16;12.40;43.10
34873;DHT22;21084;51.098;14.506;2023-04-28T06:27:44;12.80;43.70
34873;DHT22;21084;51.098;14.506;2023-04-28T06:30:17;13.10;42.80
34873;DHT22;21084;51.098;14.506;2023-04-28T06:32:46;13.00;41.80
34873;DHT22;21084;51.098;14.506;2023-04-28T06:35:17;13.30;42.20
34873;DHT22;21084;51.098;14.506;2023-04-28T06:37:45;13.80;42.30
34873;DHT22;21084;51.098;14.506;2023-04-28T06:40:14;14.20;41.10
34873;DHT22;21084;51.098;14.506;2023-04-28T06:42:43;14.30;39.50
34873;DHT22;21084;51.098;14.506;2023-04-28T06:45:11;14.80;41.00
34873;DHT22;21084;51.098;14.506;2023-04-28T06:47:40;14.90;37.50
34873;DHT22;21084;51.098;14.506;2023-04-28T06:50:09;14.40;37.30
34873;DHT22;21084;51.098;14.506;2023-04-28T06:52:40;13.90;39.50
34873;DHT22;21084;51.098;14.506;2023-04-28T06:55:09;14.00;39.50
34873;DHT22;21084;51.098;14.506;2023-04-28T06:57:37;14.10;38.80
34873;DHT22;21084;51.098;14.506;2023-04-28T07:00:07;14.00;38.90
34873;DHT22;21084;51.098;14.506;2023-04-28T07:02:37;14.00;38.40
34873;DHT22;21084;51.098;14.506;2023-04-28T07:05:06;14.00;39.10
34873;DHT22;21084;51.098;14.506;2023-04-28T07:07:35;14.20;39.30
34873;DHT22;21084;51.098;14.506;2023-04-28T07:10:07;14.20;39.80
34873;DHT22;21084;51.098;14.506;2023-04-28T07:12:36;14.50;38.60
34873;DHT22;21084;51.098;14.506;2023-04-28T07:15:06;14.50;37.50
34873;DHT22;21084;51.098;14.506;2023-04-28T07:17:36;14.30;38.40
34873;DHT22;21084;51.098;14.506;2023-04-28T07:20:06;14.50;39.30
34873;DHT22;21084;51.098;14.506;2023-04-28T07:22:35;14.60;38.00
34873;DHT22;21084;51.098;14.506;2023-04-28T07:25:06;14.60;37.70
34873;DHT22;21084;51.098;14.506;2023-04-28T07:27:35;14.50;38.00
34873;DHT22;21084;51.098;14.506;2023-04-28T07:30:05;14.20;36.80
34873;DHT22;21084;51.098;14.506;2023-04-28T07:32:52;14.00;38.10
34873;DHT22;21084;51.098;14.506;2023-04-28T07:35:21;13.90;38.10
34873;DHT22;21084;51.098;14.506;2023-04-28T07:37:50;14.10;38.50
34873;DHT22;21084;51.098;14.506;2023-04-28T07:40:21;13.70;38.20
34873;DHT22;21084;51.098;14.506;2023-04-28T07:42:49;13.80;38.50
34873;DHT22;21084;51.098;14.506;2023-04-28T07:45:19;14.00;38.10
34873;DHT22;21084;51.098;14.506;2023-04-28T07:47:47;14.10;39.00
34873;DHT22;21084;51.098;14.506;2023-04-28T07:50:16;13.90;37.90
34873;DHT22;21084;51.098;14.506;2023-04-28T07:52:45;14.10;39.10
34873;DHT22;21084;51.098;14.506;2023-04-28T07:55:13;14.90;38.10
34873;DHT22;21084;51.098;14.506;2023-04-28T07:57:43;15.50;36.50
34873;DHT22;21084;51.098;14.506;2023-04-28T08:00:12;16.20;35.90
34873;DHT22;21084;51.098;14.506;2023-04-28T08:02:41;17.10;35.40
34873;DHT22;21084;51.098;14.506;2023-04-28T08:05:10;17.70;34.50
34873;DHT22;21084;51.098;14.506;2023-04-28T08:07:39;18.60;33.50
34873;DHT22;21084;51.098;14.506;2023-04-28T08:10:09;19.30;33.40
34873;DHT22;21084;51.098;14.506;2023-04-28T08:12:38;19.10;30.80
34873;DHT22;21084;51.098;14.506;2023-04-28T08:15:09;19.10;31.80
34873;DHT22;21084;51.098;14.506;2023-04-28T08:17:38;19.80;31.70
34873;DHT22;21084;51.098;14.506;2023-04-28T08:20:08;19.90;30.70
34873;DHT22;21084;51.098;14.506;2023-04-28T08:22:37;20.20;30.30
34873;DHT22;21084;51.098;14.506;2023-04-28T08:25:06;20.50;30.50
34873;DHT22;21084;51.098;14.506;2023-04-28T08:27:35;20.30;31.20
34873;DHT22;21084;51.098;14.506;2023-04-28T08:30:05;20.30;30.00
34873;DHT22;21084;51.098;14.506;2023-04-28T08:32:35;20.70;30.40
34873;DHT22;21084;51.098;14.506;2023-04-28T08:35:05;20.30;29.70
34873;DHT22;21084;51.098;14.506;2023-04-28T08:37:35;20.80;31.20
34873;DHT22;21084;51.098;14.506;2023-04-28T08:40:04;19.60;30.00
34873;DHT22;21084;51.098;14.506;2023-04-28T08:42:36;19.10;32.70
34873;DHT22;21084;51.098;14.506;2023-04-28T08:45:07;19.50;33.10
34873;DHT22;21084;51.098;14.506;2023-04-28T08:47:38;20.20;31.80
34873;DHT22;21084;51.098;14.506;2023-04-28T08:50:13;20.70;29.80
34873;DHT22;21084;51.098;14.506;2023-04-28T08:52:43;22.20;30.10
34873;DHT22;21084;51.098;14.506;2023-04-28T08:55:11;22.30;28.30
34873;DHT22;21084;51.098;14.506;2023-04-28T08:57:43;20.90;29.20
34873;DHT22;21084;51.098;14.506;2023-04-28T09:00:12;20.70;29.30
34873;DHT22;21084;51.098;14.506;2023-04-28T09:02:42;20.70;29.00
34873;DHT22;21084;51.098;14.506;2023-04-28T09:05:12;20.70;29.50
34873;DHT22;21084;51.098;14.506;2023-04-28T09:07:45;20.50;29.70
34873;DHT22;21084;51.098;14.506;2023-04-28T09:10:19;20.80;29.90
34873;DHT22;21084;51.098;14.506;2023-04-28T09:12:52;20.90;29.30
34873;DHT22;21084;51.098;14.506;2023-04-28T09:15:29;20.80;29.40
34873;DHT22;21084;51.098;14.506;2023-04-28T09:18:02;21.10;30.60
34873;DHT22;21084;51.098;14.506;2023-04-28T09:20:32;21.00;29.70
34873;DHT22;21084;51.098;14.506;2023-04-28T09:25:58;22.10;29.60
34873;DHT22;21084;51.098;14.506;2023-04-28T09:28:28;23.30;27.90
34873;DHT22;21084;51.098;14.506;2023-04-28T09:30:56;23.60;27.60
34873;DHT22;21084;51.098;14.506;2023-04-28T09:33:27;24.10;27.60
34873;DHT22;21084;51.098;14.506;2023-04-28T09:35:56;24.60;26.60
34873;DHT22;21084;51.098;14.506;2023-04-28T09:38:24;25.20;26.90
34873;DHT22;21084;51.098;14.506;2023-04-28T09:40:56;25.50;26.40
34873;DHT22;21084;51.098;14.506;2023-04-28T09:43:27;25.10;25.80
34873;DHT22;21084;51.098;14.506;2023-04-28T09:45:58;24.30;25.80
34873;DHT22;21084;51.098;14.506;2023-04-28T09:48:30;22.90;26.20
34873;DHT22;21084;51.098;14.506;2023-04-28T09:51:00;22.70;27.30
34873;DHT22;21084;51.098;14.506;2023-04-28T09:53:30;22.70;28.30
34873;DHT22;21084;51.098;14.506;2023-04-28T09:56:00;23.10;28.10
34873;DHT22;21084;51.098;14.506;2023-04-28T09:58:30;23.20;27.90
34873;DHT22;21084;51.098;14.506;2023-04-28T10:01:00;23.50;27.70
34873;DHT22;21084;51.098;14.506;2023-04-28T10:03:31;23.80;26.60
34873;DHT22;21084;51.098;14.506;2023-04-28T10:06:01;23.70;26.90
34873;DHT22;21084;51.098;14.506;2023-04-28T10:08:30;24.00;26.10
34873;DHT22;21084;51.098;14.506;2023-04-28T10:10:59;23.50;25.90
34873;DHT22;21084;51.098;14.506;2023-04-28T10:13:29;22.70;27.50
34873;DHT22;21084;51.098;14.506;2023-04-28T10:15:59;22.30;27.30
34873;DHT22;21084;51.098;14.506;2023-04-28T10:18:28;22.70;28.40
34873;DHT22;21084;51.098;14.506;2023-04-28T10:21:00;21.80;27.30
34873;DHT22;21084;51.098;14.506;2023-04-28T10:29:33;20.20;29.80
34873;DHT22;21084;51.098;14.506;2023-04-28T10:32:19;19.70;30.10
34873;DHT22;21084;51.098;14.506;2023-04-28T10:34:48;19.80;30.00
34873;DHT22;21084;51.098;14.506;2023-04-28T10:37:20;19.60;29.60
34873;DHT22;21084;51.098;14.506;2023-04-28T10:40:30;19.50;30.30
34873;DHT22;21084;51.098;14.506;2023-04-28T10:42:59;18.40;31.50
34873;DHT22;21084;51.098;14.506;2023-04-28T10:45:59;18.80;33.00
34873;DHT22;21084;51.098;14.506;2023-04-28T10:48:51;18.60;31.20
34873;DHT22;21084;51.098;14.506;2023-04-28T10:51:27;18.40;32.10
34873;DHT22;21084;51.098;14.506;2023-04-28T10:54:16;18.70;32.00
34873;DHT22;21084;51.098;14.506;2023-04-28T10:57:17;19.00;31.40
34873;DHT22;21084;51.098;14.506;2023-04-28T10:59:45;18.50;31.50
34873;DHT22;21084;51.098;14.506;2023-04-28T11:02:39;18.40;33.20
34873;DHT22;21084;51.098;14.506;2023-04-28T11:05:12;18.50;31.70
34873;DHT22;21084;51.098;14.506;2023-04-28T11:11:29;18.20;33.40
34873;DHT22;21084;51.098;14.506;2023-04-28T11:14:31;17.90;33.40
34873;DHT22;21084;51.098;14.506;2023-04-28T11:17:01;18.20;32.50
34873;DHT22;21084;51.098;14.506;2023-04-28T11:19:30;18.30;31.90
34873;DHT22;21084;51.098;14.506;2023-04-28T11:22:00;18.10;33.00
34873;DHT22;21084;51.098;14.506;2023-04-28T11:24:29;17.90;33.30
34873;DHT22;21084;51.098;14.506;2023-04-28T11:27:00;17.10;33.30
34873;DHT22;21084;51.098;14.506;2023-04-28T11:29:30;16.90;35.00
34873;DHT22;21084;51.098;14.506;2023-04-28T11:31:59;16.70;34.70
34873;DHT22;21084;51.098;14.506;2023-04-28T11:34:28;16.40;34.20
34873;DHT22;21084;51.098;14.506;2023-04-28T11:36:56;16.30;35.00
34873;DHT22;21084;51.098;14.506;2023-04-28T11:39:26;16.20;34.80
34873;DHT22;21084;51.098;14.506;2023-04-28T11:42:00;16.30;35.20
34873;DHT22;21084;51.098;14.506;2023-04-28T11:44:30;16.50;35.60
34873;DHT22;21084;51.098;14.506;2023-04-28T11:47:00;16.60;36.10
34873;DHT22;21084;51.098;14.506;2023-04-28T11:49:31;17.20;36.60
34873;DHT22;21084;51.098;14.506;2023-04-28T11:52:04;17.70;35.70
34873;DHT22;21084;51.098;14.506;2023-04-28T11:54:34;18.10;35.70
34873;DHT22;21084;51.098;14.506;2023-04-28T11:57:05;18.20;34.70
34873;DHT22;21084;51.098;14.506;2023-04-28T11:59:35;18.00;35.00
34873;DHT22;21084;51.098;14.506;2023-04-28T12:02:07;17.70;36.40
34873;DHT22;21084;51.098;14.506;2023-04-28T12:04:37;17.80;36.90
34873;DHT22;21084;51.098;14.506;2023-04-28T12:07:06;17.70;35.60
34873;DHT22;21084;51.098;14.506;2023-04-28T12:09:37;17.50;36.70
34873;DHT22;21084;51.098;14.506;2023-04-28T12:12:09;17.20;36.60
34873;DHT22;21084;51.098;14.506;2023-04-28T12:14:55;17.10;36.60
34873;DHT22;21084;51.098;14.506;2023-04-28T12:17:24;16.90;37.90
34873;DHT22;21084;51.098;14.506;2023-04-28T12:19:53;16.80;36.90
34873;DHT22;21084;51.098;14.506;2023-04-28T12:22:22;16.80;36.90
34873;DHT22;21084;51.098;14.506;2023-04-28T12:25:04;16.60;37.60
34873;DHT22;21084;51.098;14.506;2023-04-28T12:27:36;16.60;37.90
34873;DHT22;21084;51.098;14.506;2023-04-28T12:30:25;16.80;38.50
34873;DHT22;21084;51.098;14.506;2023-04-28T12:32:55;16.90;38.60
34873;DHT22;21084;51.098;14.506;2023-04-28T12:35:24;16.70;38.40
34873;DHT22;21084;51.098;14.506;2023-04-28T12:37:53;16.60;38.20
34873;DHT22;21084;51.098;14.506;2023-04-28T12:40:23;16.80;38.40
34873;DHT22;21084;51.098;14.506;2023-04-28T12:42:53;16.80;39.00
34873;DHT22;21084;51.098;14.506;2023-04-28T12:45:22;17.00;39.50
34873;DHT22;21084;51.098;14.506;2023-04-28T12:47:51;17.30;39.40
34873;DHT22;21084;51.098;14.506;2023-04-28T12:50:19;16.80;39.20
34873;DHT22;21084;51.098;14.506;2023-04-28T12:52:48;16.60;39.90
34873;DHT22;21084;51.098;14.506;2023-04-28T12:55:17;16.40;39.60
34873;DHT22;21084;51.098;14.506;2023-04-28T12:57:46;16.30;40.40
34873;DHT22;21084;51.098;14.506;2023-04-28T13:00:16;17.10;41.40
34873;DHT22;21084;51.098;14.506;2023-04-28T13:02:47;17.20;39.50
34873;DHT22;21084;51.098;14.506;2023-04-28T13:05:16;17.20;40.70
34873;DHT22;21084;51.098;14.506;2023-04-28T13:07:45;17.20;39.90
34873;DHT22;21084;51.098;14.506;2023-04-28T13:10:17;16.80;40.70
34873;DHT22;21084;51.098;14.506;2023-04-28T13:12:47;16.70;40.40
34873;DHT22;21084;51.098;14.506;2023-04-28T13:15:17;17.10;40.50
34873;DHT22;21084;51.098;14.506;2023-04-28T13:17:47;17.00;40.50
34873;DHT22;21084;51.098;14.506;2023-04-28T13:20:16;16.70;40.10
34873;DHT22;21084;51.098;14.506;2023-04-28T13:22:44;16.20;41.50
34873;DHT22;21084;51.098;14.506;2023-04-28T13:25:13;16.00;42.60
34873;DHT22;21084;51.098;14.506;2023-04-28T13:27:42;16.10;45.30
34873;DHT22;21084;51.098;14.506;2023-04-28T13:30:12;16.10;44.60
34873;DHT22;21084;51.098;14.506;2023-04-28T13:32:42;16.60;45.40
34873;DHT22;21084;51.098;14.506;2023-04-28T13:35:11;16.50;42.70
34873;DHT22;21084;51.098;14.506;2023-04-28T13:37:39;16.60;43.80
34873;DHT22;21084;51.098;14.506;2023-04-28T13:40:12;16.80;43.10
34873;DHT22;21084;51.098;14.506;2023-04-28T13:42:40;16.70;42.70
34873;DHT22;21084;51.098;14.506;2023-04-28T13:45:10;16.80;42.70
34873;DHT22;21084;51.098;14.506;2023-04-28T13:47:42;16.70;41.60
34873;DHT22;21084;51.098;14.506;2023-04-28T13:50:10;16.70;42.70
34873;DHT22;21084;51.098;14.506;2023-04-28T13:52:39;16.90;42.50
34873;DHT22;21084;51.098;14.506;2023-04-28T13:55:09;17.00;42.00
34873;DHT22;21084;51.098;14.506;2023-04-28T13:57:38;16.90;42.20
34873;DHT22;21084;51.098;14.506;2023-04-28T14:00:08;16.30;42.10
34873;DHT22;21084;51.098;14.506;2023-04-28T14:02:36;16.10;43.70
34873;DHT22;21084;51.098;14.506;2023-04-28T14:05:09;16.20;43.40
34873;DHT22;21084;51.098;14.506;2023-04-28T14:07:38;16.30;44.00
34873;DHT22;21084;51.098;14.506;2023-04-28T14:10:07;16.30;43.50
34873;DHT22;21084;51.098;14.506;2023-04-28T14:12:37;16.10;43.20
34873;DHT22;21084;51.098;14.506;2023-04-28T14:15:06;16.00;44.30
34873;DHT22;21084;51.098;14.506;2023-04-28T14:17:35;15.90;44.10
34873;DHT22;21084;51.098;14.506;2023-04-28T14:20:05;15.70;44.70
34873;DHT22;21084;51.098;14.506;2023-04-28T14:22:35;15.40;45.10
34873;DHT22;21084;51.098;14.506;2023-04-28T14:25:05;15.40;46.20
34873;DHT22;21084;51.098;14.506;2023-04-28T14:27:34;15.50;45.70
34873;DHT22;21084;51.098;14.506;2023-04-28T14:30:03;15.50;46.50
34873;DHT22;21084;51.098;14.506;2023-04-28T14:32:32;15.40;45.30
34873;DHT22;21084;51.098;14.506;2023-04-28T14:35:02;15.20;45.90
34873;DHT22;21084;51.098;14.506;2023-04-28T14:37:32;15.40;46.20
34873;DHT22;21084;51.098;14.506;2023-04-28T14:40:02;15.40;46.30
34873;DHT22;21084;51.098;14.506;2023-04-28T14:42:32;15.60;45.90
34873;DHT22;21084;51.098;14.506;2023-04-28T14:45:03;15.80;45.60
34873;DHT22;21084;51.098;14.506;2023-04-28T14:47:32;15.90;45.00
34873;DHT22;21084;51.098;14.506;2023-04-28T14:50:00;16.00;45.20
34873;DHT22;21084;51.098;14.506;2023-04-28T14:52:29;16.00;47.10
34873;DHT22;21084;51.098;14.506;2023-04-28T14:54:59;16.00;47.30
34873;DHT22;21084;51.098;14.506;2023-04-28T14:57:30;15.60;46.60
34873;DHT22;21084;51.098;14.506;2023-04-28T15:00:00;15.50;46.60
34873;DHT22;21084;51.098;14.506;2023-04-28T15:02:30;15.50;48.20
34873;DHT22;21084;51.098;14.506;2023-04-28T15:04:58;15.20;48.10
34873;DHT22;21084;51.098;14.506;2023-04-28T15:07:27;14.90;48.90
34873;DHT22;21084;51.098;14.506;2023-04-28T15:09:58;14.90;49.70
34873;DHT22;21084;51.098;14.506;2023-04-28T15:12:27;15.10;50.20
34873;DHT22;21084;51.098;14.506;2023-04-28T15:14:59;15.10;49.50
34873;DHT22;21084;51.098;14.506;2023-04-28T15:17:28;14.80;48.30
34873;DHT22;21084;51.098;14.506;2023-04-28T15:19:56;14.70;49.50
34873;DHT22;21084;51.098;14.506;2023-04-28T15:22:25;14.60;49.50
34873;DHT22;21084;51.098;14.506;2023-04-28T15:24:54;14.40;50.20
34873;DHT22;21084;51.098;14.506;2023-04-28T15:27:22;14.30;51.00
34873;DHT22;21084;51.098;14.506;2023-04-28T15:29:51;14.10;50.00
34873;DHT22;21084;51.098;14.506;2023-04-28T15:32:21;13.90;50.40
34873;DHT22;21084;51.098;14.506;2023-04-28T15:34:50;13.80;51.30
34873;DHT22;21084;51.098;14.506;2023-04-28T15:37:39;13.80;51.20
34873;DHT22;21084;51.098;14.506;2023-04-28T15:40:09;13.80;51.60
34873;DHT22;21084;51.098;14.506;2023-04-28T15:42:38;13.80;51.00
34873;DHT22;21084;51.098;14.506;2023-04-28T15:45:09;13.80;50.80
34873;DHT22;21084;51.098;14.506;2023-04-28T15:47:39;13.80;51.10
34873;DHT22;21084;51.098;14.506;2023-04-28T15:50:09;13.70;51.30
34873;DHT22;21084;51.098;14.506;2023-04-28T15:52:38;13.60;50.90